createdAt,value
2022-12-17T00:00:28.875Z,-0.34
2022-12-17T00:01:52.040Z,-0.37
2022-12-17T00:03:16.042Z,-0.37
2022-12-17T00:04:36.590Z,-0.38
2022-12-17T00:05:56.609Z,-0.37
2022-12-17T00:07:16.770Z,-0.39
2022-12-17T00:08:36.791Z,-0.41
2022-12-17T00:09:56.682Z,-0.42
2022-12-17T00:11:16.857Z,-0.42
2022-12-17T00:12:36.966Z,-0.45
2022-12-17T00:13:57.323Z,-0.46
2022-12-17T00:15:17.401Z,-0.47
2022-12-17T00:16:37.462Z,-0.49
2022-12-17T00:17:57.445Z,-0.49
2022-12-17T00:19:17.564Z,-0.49
2022-12-17T00:20:37.346Z,-0.49
2022-12-17T00:21:57.125Z,-0.48
2022-12-17T00:23:22.401Z,-0.49
2022-12-17T00:24:42.804Z,-0.51
2022-12-17T00:26:02.720Z,-0.50
2022-12-17T00:27:23.043Z,-0.50
2022-12-17T00:28:43.402Z,-0.53
2022-12-17T00:30:03.734Z,-0.52
2022-12-17T00:31:23.826Z,-0.54
2022-12-17T00:32:44.695Z,-0.54
2022-12-17T00:34:04.916Z,-0.55
2022-12-17T00:35:25.701Z,-0.55
2022-12-17T00:36:45.602Z,-0.58
2022-12-17T00:38:05.819Z,-0.59
2022-12-17T00:39:26.666Z,-0.58
2022-12-17T00:40:46.907Z,-0.61
2022-12-17T00:42:07.594Z,-0.60
2022-12-17T00:43:30.441Z,-0.60
2022-12-17T00:44:50.710Z,-0.59
2022-12-17T00:46:11.183Z,-0.61
2022-12-17T00:47:31.410Z,-0.63
2022-12-17T00:48:51.689Z,-0.63
2022-12-17T00:50:11.941Z,-0.66
2022-12-17T00:51:32.152Z,-0.71
2022-12-17T00:52:52.316Z,-0.70
2022-12-17T00:54:12.554Z,-0.68
2022-12-17T00:55:33.757Z,-0.68
2022-12-17T00:56:54.210Z,-0.68
2022-12-17T00:58:18.089Z,-0.67
2022-12-17T00:59:38.141Z,-0.67
2022-12-17T01:00:58.340Z,-0.67
2022-12-17T01:02:18.610Z,-0.67
2022-12-17T01:03:39.830Z,-0.66
2022-12-17T01:05:00.439Z,-0.67
2022-12-17T01:06:20.821Z,-0.66
2022-12-17T01:07:41.102Z,-0.67
2022-12-17T01:09:01.101Z,-0.67
2022-12-17T01:10:21.329Z,-0.66
2022-12-17T01:11:41.239Z,-0.66
2022-12-17T01:13:01.525Z,-0.66
2022-12-17T01:14:21.796Z,-0.69
2022-12-17T01:15:41.897Z,-0.69
2022-12-17T01:17:02.133Z,-0.69
2022-12-17T01:18:22.434Z,-0.69
2022-12-17T01:19:42.432Z,-0.70
2022-12-17T01:21:03.265Z,-0.73
2022-12-17T01:22:23.406Z,-0.74
2022-12-17T01:23:43.739Z,-0.74
2022-12-17T01:25:03.799Z,-0.75
2022-12-17T01:26:23.982Z,-0.74
2022-12-17T01:27:43.999Z,-0.78
2022-12-17T01:29:04.447Z,-0.79
2022-12-17T01:30:24.928Z,-0.81
2022-12-17T01:31:45.013Z,-0.83
2022-12-17T01:33:05.029Z,-0.85
2022-12-17T01:34:25.549Z,-0.86
2022-12-17T01:35:45.569Z,-0.87
2022-12-17T01:37:05.293Z,-0.89
2022-12-17T01:38:34.608Z,-0.92
2022-12-17T01:39:54.934Z,-0.92
2022-12-17T01:41:14.981Z,-0.93
2022-12-17T01:42:35.154Z,-0.92
2022-12-17T01:43:55.853Z,-0.93
2022-12-17T01:45:15.962Z,-0.91
2022-12-17T01:46:36.323Z,-0.91
2022-12-17T01:47:57.586Z,-0.91
2022-12-17T01:49:17.726Z,-0.92
2022-12-17T01:50:37.640Z,-0.93
2022-12-17T01:51:57.838Z,-0.92
2022-12-17T01:53:18.073Z,-0.95
2022-12-17T01:54:38.272Z,-0.96
2022-12-17T01:55:58.253Z,-0.96
2022-12-17T01:57:18.182Z,-0.95
2022-12-17T01:58:38.547Z,-0.95
2022-12-17T02:00:05.568Z,-0.95
2022-12-17T02:01:33.971Z,-0.94
2022-12-17T02:02:53.997Z,-0.94
2022-12-17T02:04:15.170Z,-0.95
2022-12-17T02:05:35.597Z,-0.97
2022-12-17T02:06:55.914Z,-0.98
2022-12-17T02:08:29.171Z,-0.98
2022-12-17T02:10:10.097Z,-0.99
2022-12-17T02:11:34.468Z,-1.01
2022-12-17T02:13:04.983Z,-1.06
2022-12-17T02:14:29.239Z,-1.06
2022-12-17T02:15:58.578Z,-1.11
2022-12-17T02:17:19.237Z,-1.12
2022-12-17T02:18:47.087Z,-1.15
2022-12-17T02:20:17.479Z,-1.14
2022-12-17T02:21:37.324Z,-1.11
2022-12-17T02:23:03.670Z,-1.13
2022-12-17T02:24:28.449Z,-1.12
2022-12-17T02:25:54.710Z,-1.11
2022-12-17T02:27:16.247Z,-1.10
2022-12-17T02:28:36.125Z,-1.09
2022-12-17T02:30:00.213Z,-1.10
2022-12-17T02:31:20.510Z,-1.15
2022-12-17T02:32:40.385Z,-1.08
2022-12-17T02:34:01.226Z,-1.10
2022-12-17T02:35:27.953Z,-1.09
2022-12-17T02:36:48.269Z,-1.09
2022-12-17T02:38:08.406Z,-1.10
2022-12-17T02:39:28.642Z,-1.09
2022-12-17T02:40:49.161Z,-1.09
2022-12-17T02:42:10.046Z,-1.10
2022-12-17T02:43:30.135Z,-1.10
2022-12-17T02:44:50.326Z,-1.10
2022-12-17T02:46:13.548Z,-1.09
2022-12-17T02:47:34.262Z,-1.10
2022-12-17T02:48:54.819Z,-1.11
2022-12-17T02:50:15.131Z,-1.10
2022-12-17T02:51:35.261Z,-1.09
2022-12-17T02:52:57.431Z,-1.09
2022-12-17T02:54:19.746Z,-1.09
2022-12-17T02:55:39.899Z,-1.08
2022-12-17T02:57:00.180Z,-1.09
2022-12-17T02:58:20.731Z,-1.08
2022-12-17T02:59:41.035Z,-1.10
2022-12-17T03:01:06.940Z,-1.10
2022-12-17T03:02:28.657Z,-1.11
2022-12-17T03:03:50.578Z,-1.13
2022-12-17T03:05:43.845Z,-1.16
2022-12-17T03:07:01.593Z,-1.17
2022-12-17T03:08:21.375Z,-1.17
2022-12-17T03:09:41.705Z,-1.19
2022-12-17T03:11:02.234Z,-1.22
2022-12-17T03:12:22.608Z,-1.24
2022-12-17T03:13:42.773Z,-1.24
2022-12-17T03:15:03.111Z,-1.24
2022-12-17T03:16:31.405Z,-1.40
2022-12-17T03:17:54.512Z,-1.31
2022-12-17T03:19:14.630Z,-1.33
2022-12-17T03:20:34.836Z,-1.35
2022-12-17T03:21:55.200Z,-1.37
2022-12-17T03:23:22.175Z,-1.37
2022-12-17T03:24:42.398Z,-1.39
2022-12-17T03:26:02.610Z,-1.38
2022-12-17T03:27:23.290Z,-1.40
2022-12-17T03:28:43.610Z,-1.40
2022-12-17T03:30:03.823Z,-1.40
2022-12-17T03:31:23.743Z,-1.44
2022-12-17T03:32:43.957Z,-1.45
2022-12-17T03:34:04.216Z,-1.45
2022-12-17T03:35:24.401Z,-1.46
2022-12-17T03:36:44.838Z,-1.45
2022-12-17T03:38:05.188Z,-1.46
2022-12-17T03:39:25.114Z,-1.48
2022-12-17T03:40:45.130Z,-1.48
2022-12-17T03:42:05.480Z,-1.48
2022-12-17T03:43:25.945Z,-1.49
2022-12-17T03:44:45.899Z,-1.49
2022-12-17T03:46:10.426Z,-1.51
2022-12-17T03:47:30.510Z,-1.51
2022-12-17T03:49:10.535Z,-1.53
2022-12-17T03:50:30.559Z,-1.53
2022-12-17T03:51:50.687Z,-1.54
2022-12-17T03:53:10.967Z,-1.57
2022-12-17T03:54:30.810Z,-1.59
2022-12-17T03:55:50.702Z,-1.59
2022-12-17T03:57:15.920Z,-1.59
2022-12-17T03:58:36.200Z,-1.60
2022-12-17T03:59:56.634Z,-1.62
2022-12-17T04:01:24.511Z,-1.63
2022-12-17T04:02:44.780Z,-1.63
2022-12-17T04:04:04.967Z,-1.62
2022-12-17T04:05:25.187Z,-1.62
2022-12-17T04:06:45.365Z,-1.62
2022-12-17T04:08:05.762Z,-1.63
2022-12-17T04:09:25.593Z,-1.63
2022-12-17T04:10:45.929Z,-1.62
2022-12-17T04:12:05.833Z,-1.64
2022-12-17T04:13:25.796Z,-1.64
2022-12-17T04:14:45.981Z,-1.63
2022-12-17T04:16:06.515Z,-1.61
2022-12-17T04:17:26.649Z,-1.61
2022-12-17T04:18:47.014Z,-1.61
2022-12-17T04:20:07.529Z,-1.61
2022-12-17T04:21:27.495Z,-1.65
2022-12-17T04:22:47.566Z,-1.67
2022-12-17T04:24:07.708Z,-1.71
2022-12-17T04:25:27.903Z,-1.73
2022-12-17T04:26:47.985Z,-1.79
2022-12-17T04:28:08.341Z,-1.82
2022-12-17T04:29:28.507Z,-1.83
2022-12-17T04:30:48.751Z,-1.80
2022-12-17T04:32:09.023Z,-1.80
2022-12-17T04:33:29.079Z,-1.80
2022-12-17T04:34:49.347Z,-1.79
2022-12-17T04:36:09.675Z,-1.81
2022-12-17T04:37:29.802Z,-1.87
2022-12-17T04:38:50.099Z,-1.87
2022-12-17T04:40:10.201Z,-1.87
2022-12-17T04:41:30.159Z,-1.88
2022-12-17T04:42:50.336Z,-1.89
2022-12-17T04:44:10.516Z,-1.89
2022-12-17T04:45:30.647Z,-1.93
2022-12-17T04:46:50.878Z,-1.94
2022-12-17T04:48:18.675Z,-1.93
2022-12-17T04:49:38.927Z,-1.94
2022-12-17T04:50:59.745Z,-1.93
2022-12-17T04:52:20.302Z,-1.96
2022-12-17T04:53:40.606Z,-1.95
2022-12-17T04:55:00.672Z,-1.94
2022-12-17T04:56:20.898Z,-1.92
2022-12-17T04:57:40.838Z,-1.93
2022-12-17T04:59:01.075Z,-1.95
2022-12-17T05:00:21.216Z,-1.97
2022-12-17T05:01:41.689Z,-1.98
2022-12-17T05:03:01.911Z,-1.99
2022-12-17T05:04:22.146Z,-2.04
2022-12-17T05:05:44.912Z,-2.07
2022-12-17T05:07:05.068Z,-2.08
2022-12-17T05:08:25.149Z,-2.07
2022-12-17T05:09:45.407Z,-2.08
2022-12-17T05:11:05.721Z,-2.06
2022-12-17T05:12:25.712Z,-2.07
2022-12-17T05:13:45.750Z,-2.08
2022-12-17T05:15:05.964Z,-2.11
2022-12-17T05:16:26.252Z,-2.09
2022-12-17T05:17:46.267Z,-2.10
2022-12-17T05:19:06.045Z,-2.10
2022-12-17T05:20:26.548Z,-2.13
2022-12-17T05:21:46.607Z,-2.13
2022-12-17T05:23:06.861Z,-2.14
2022-12-17T05:24:26.665Z,-2.17
2022-12-17T05:25:47.002Z,-2.19
2022-12-17T05:27:07.264Z,-2.33
2022-12-17T05:28:27.178Z,-2.21
2022-12-17T05:29:47.481Z,-2.21
2022-12-17T05:31:11.245Z,-2.23
2022-12-17T05:32:33.055Z,-2.26
2022-12-17T05:33:53.067Z,-2.25
2022-12-17T05:35:13.426Z,-2.28
2022-12-17T05:36:33.458Z,-2.26
2022-12-17T05:37:53.322Z,-2.26
2022-12-17T05:39:13.680Z,-2.25
2022-12-17T05:40:33.690Z,-2.26
2022-12-17T05:41:53.705Z,-2.27
2022-12-17T05:43:14.648Z,-2.26
2022-12-17T05:44:34.858Z,-2.27
2022-12-17T05:45:54.740Z,-2.26
2022-12-17T05:47:15.026Z,-2.29
2022-12-17T05:48:35.007Z,-2.31
2022-12-17T05:49:56.470Z,-2.32
2022-12-17T05:51:16.695Z,-2.32
2022-12-17T05:52:36.623Z,-2.33
2022-12-17T05:53:56.838Z,-2.35
2022-12-17T05:55:16.786Z,-2.34
2022-12-17T05:56:36.913Z,-2.35
2022-12-17T05:57:57.225Z,-2.37
2022-12-17T05:59:17.323Z,-2.39
2022-12-17T06:00:37.496Z,-2.39
2022-12-17T06:01:57.735Z,-2.43
2022-12-17T06:03:18.581Z,-2.43
2022-12-17T06:04:38.354Z,-2.43
2022-12-17T06:05:58.714Z,-2.44
2022-12-17T06:07:18.764Z,-2.47
2022-12-17T06:08:39.107Z,-2.47
2022-12-17T06:09:59.476Z,-2.47
2022-12-17T06:11:19.242Z,-2.47
2022-12-17T06:12:39.531Z,-2.47
2022-12-17T06:13:59.330Z,-2.46
2022-12-17T06:15:19.421Z,-2.46
2022-12-17T06:16:39.817Z,-2.44
2022-12-17T06:18:01.859Z,-2.46
2022-12-17T06:19:21.673Z,-2.45
2022-12-17T06:20:41.709Z,-2.45
2022-12-17T06:22:01.988Z,-2.43
2022-12-17T06:23:22.974Z,-2.42
2022-12-17T06:24:46.121Z,-2.40
2022-12-17T06:26:06.711Z,-2.42
2022-12-17T06:27:26.629Z,-2.42
2022-12-17T06:28:46.859Z,-2.43
2022-12-17T06:30:07.014Z,-2.42
2022-12-17T06:31:27.291Z,-2.44
2022-12-17T06:32:47.302Z,-2.44
2022-12-17T06:34:07.115Z,-2.44
2022-12-17T06:35:27.258Z,-2.47
2022-12-17T06:36:47.265Z,-2.46
2022-12-17T06:38:07.465Z,-2.45
2022-12-17T06:39:27.907Z,-2.44
2022-12-17T06:40:47.786Z,-2.44
2022-12-17T06:42:08.006Z,-2.46
2022-12-17T06:43:28.294Z,-2.47
2022-12-17T06:44:48.423Z,-2.47
2022-12-17T06:46:10.319Z,-2.47
2022-12-17T06:47:30.579Z,-2.46
2022-12-17T06:48:50.706Z,-2.48
2022-12-17T06:50:10.866Z,-2.50
2022-12-17T06:51:32.627Z,-2.50
2022-12-17T06:52:52.521Z,-2.48
2022-12-17T06:54:12.815Z,-2.48
2022-12-17T06:55:32.856Z,-2.48
2022-12-17T06:56:53.071Z,-2.60
2022-12-17T06:58:18.599Z,-2.48
2022-12-17T06:59:38.826Z,-2.49
2022-12-17T07:00:59.076Z,-2.51
2022-12-17T07:02:19.650Z,-2.50
2022-12-17T07:03:40.107Z,-2.50
2022-12-17T07:05:00.405Z,-2.51
2022-12-17T07:06:20.639Z,-2.52
2022-12-17T07:07:40.950Z,-2.54
2022-12-17T07:09:00.907Z,-2.54
2022-12-17T07:10:21.305Z,-2.54
2022-12-17T07:11:41.638Z,-2.56
2022-12-17T07:13:02.049Z,-2.57
2022-12-17T07:14:21.969Z,-2.81
2022-12-17T07:15:42.205Z,-2.60
2022-12-17T07:17:02.245Z,-2.60
2022-12-17T07:18:22.346Z,-2.61
2022-12-17T07:19:42.491Z,-2.63
2022-12-17T07:21:02.332Z,-2.63
2022-12-17T07:22:22.267Z,-2.63
2022-12-17T07:23:42.226Z,-2.63
2022-12-17T07:25:02.064Z,-2.62
2022-12-17T07:26:22.052Z,-2.63
2022-12-17T07:27:42.246Z,-2.67
2022-12-17T07:29:02.369Z,-2.65
2022-12-17T07:30:22.503Z,-2.65
2022-12-17T07:31:42.627Z,-2.63
2022-12-17T07:33:02.858Z,-2.63
2022-12-17T07:34:22.941Z,-2.63
2022-12-17T07:35:42.910Z,-2.60
2022-12-17T07:37:02.830Z,-2.59
2022-12-17T07:38:23.052Z,-2.56
2022-12-17T07:39:43.283Z,-2.51
2022-12-17T07:41:03.592Z,-2.49
2022-12-17T07:42:23.512Z,-2.45
2022-12-17T07:43:47.024Z,-2.41
2022-12-17T07:45:11.730Z,-2.38
2022-12-17T07:46:32.019Z,-2.34
2022-12-17T07:47:51.970Z,-2.34
2022-12-17T07:49:12.206Z,-2.29
2022-12-17T07:50:32.186Z,-2.26
2022-12-17T07:51:52.145Z,-2.23
2022-12-17T07:53:18.744Z,-2.19
2022-12-17T07:54:39.135Z,-2.16
2022-12-17T07:55:59.414Z,-2.14
2022-12-17T07:57:19.623Z,-2.12
2022-12-17T07:58:39.513Z,-2.09
2022-12-17T07:59:59.760Z,-2.08
2022-12-17T08:01:20.264Z,-2.05
2022-12-17T08:02:45.146Z,-2.04
2022-12-17T08:04:05.193Z,-2.01
2022-12-17T08:05:25.381Z,-1.96
2022-12-17T08:06:45.599Z,-1.94
2022-12-17T08:08:05.765Z,-1.92
2022-12-17T08:09:25.920Z,-1.89
2022-12-17T08:10:45.941Z,-1.88
2022-12-17T08:12:06.171Z,-1.86
2022-12-17T08:13:26.095Z,-1.84
2022-12-17T08:14:45.917Z,-1.83
2022-12-17T08:16:06.077Z,-1.81
2022-12-17T08:17:26.109Z,-1.77
2022-12-17T08:18:46.291Z,-1.76
2022-12-17T08:20:06.528Z,-1.73
2022-12-17T08:21:26.789Z,-1.73
2022-12-17T08:22:47.090Z,-1.70
2022-12-17T08:24:06.968Z,-1.69
2022-12-17T08:25:26.723Z,-1.68
2022-12-17T08:26:48.285Z,-1.64
2022-12-17T08:28:41.221Z,-1.60
2022-12-17T08:29:53.410Z,-1.57
2022-12-17T08:31:13.530Z,-1.56
2022-12-17T08:32:33.701Z,-1.53
2022-12-17T08:33:53.981Z,-1.53
2022-12-17T08:35:14.002Z,-1.53
2022-12-17T08:36:34.206Z,-1.64
2022-12-17T08:37:54.477Z,-1.52
2022-12-17T08:39:14.573Z,-1.49
2022-12-17T08:40:34.736Z,-1.44
2022-12-17T08:41:57.489Z,-1.43
2022-12-17T08:43:21.149Z,-1.42
2022-12-17T08:44:41.504Z,-1.41
2022-12-17T08:46:07.698Z,-1.37
2022-12-17T08:47:28.033Z,-1.39
2022-12-17T08:48:48.253Z,-1.34
2022-12-17T08:50:08.283Z,-1.33
2022-12-17T08:51:28.145Z,-1.28
2022-12-17T08:52:48.459Z,-1.24
2022-12-17T08:54:08.464Z,-1.19
2022-12-17T08:55:28.809Z,-1.16
2022-12-17T08:56:48.850Z,-1.13
2022-12-17T08:58:12.134Z,-1.12
2022-12-17T08:59:32.142Z,-1.13
2022-12-17T09:00:52.148Z,-1.15
2022-12-17T09:02:12.797Z,-1.13
2022-12-17T09:03:33.133Z,-1.12
2022-12-17T09:04:53.310Z,-1.11
2022-12-17T09:06:13.687Z,-1.09
2022-12-17T09:07:33.927Z,-1.05
2022-12-17T09:08:54.104Z,-1.03
2022-12-17T09:10:13.882Z,-1.03
2022-12-17T09:11:33.670Z,-0.98
2022-12-17T09:12:53.550Z,-0.94
2022-12-17T09:14:13.825Z,-0.96
2022-12-17T09:15:34.141Z,-0.93
2022-12-17T09:16:53.973Z,-0.92
2022-12-17T09:18:14.364Z,-0.92
2022-12-17T09:19:34.649Z,-0.90
2022-12-17T09:20:54.750Z,-0.86
2022-12-17T09:22:15.133Z,-0.82
2022-12-17T09:23:35.703Z,-0.77
2022-12-17T09:24:56.009Z,-0.75
2022-12-17T09:26:16.202Z,-0.69
2022-12-17T09:27:36.063Z,-0.72
2022-12-17T09:28:56.030Z,-0.70
2022-12-17T09:30:16.647Z,-0.67
2022-12-17T09:31:37.629Z,-0.65
2022-12-17T09:32:58.014Z,-0.67
2022-12-17T09:34:17.883Z,-0.68
2022-12-17T09:35:37.838Z,-0.69
2022-12-17T09:36:58.077Z,-0.68
2022-12-17T09:38:18.398Z,-0.69
2022-12-17T09:39:38.287Z,-0.71
2022-12-17T09:40:58.239Z,-0.69
2022-12-17T09:42:25.522Z,-0.67
2022-12-17T09:43:57.637Z,-0.63
2022-12-17T09:45:17.861Z,-0.61
2022-12-17T09:46:39.525Z,-0.56
2022-12-17T09:48:02.709Z,-0.52
2022-12-17T09:49:58.109Z,-0.58
2022-12-17T09:51:18.376Z,-0.53
2022-12-17T09:52:53.990Z,-0.46
2022-12-17T09:54:14.271Z,-0.42
2022-12-17T09:55:34.018Z,-0.40
2022-12-17T09:56:54.510Z,-0.44
2022-12-17T09:58:17.255Z,-0.41
2022-12-17T09:59:38.513Z,-0.42
2022-12-17T10:01:01.094Z,-0.39
2022-12-17T10:02:30.101Z,-0.38
2022-12-17T10:04:03.641Z,-0.33
2022-12-17T10:05:24.159Z,-0.32
2022-12-17T10:06:44.430Z,-0.31
2022-12-17T10:08:04.619Z,-0.28
2022-12-17T10:09:31.648Z,-0.27
2022-12-17T10:10:51.945Z,-0.23
2022-12-17T10:12:11.760Z,-0.20
2022-12-17T10:13:38.491Z,-0.18
2022-12-17T10:14:58.866Z,-0.14
2022-12-17T10:16:19.229Z,-0.10
2022-12-17T10:17:42.315Z,-0.06
2022-12-17T10:19:02.607Z,-0.09
2022-12-17T10:20:23.073Z,-0.06
2022-12-17T10:21:49.414Z,-0.07
2022-12-17T10:23:09.537Z,-0.05
2022-12-17T10:24:29.693Z,-0.01
2022-12-17T10:25:49.870Z,0.03
2022-12-17T10:27:10.149Z,0.01
2022-12-17T10:28:31.207Z,0.00
2022-12-17T10:29:51.528Z,-0.06
2022-12-17T10:31:12.211Z,-0.09
2022-12-17T10:32:35.515Z,-0.13
2022-12-17T10:33:56.097Z,-0.12
2022-12-17T10:35:16.286Z,-0.11
2022-12-17T10:36:39.934Z,-0.13
2022-12-17T10:38:00.133Z,-0.14
2022-12-17T10:39:19.994Z,-0.12
2022-12-17T10:40:46.483Z,-0.09
2022-12-17T10:42:06.614Z,-0.06
2022-12-17T10:43:45.354Z,-0.06
2022-12-17T10:45:05.589Z,-0.02
2022-12-17T10:46:25.576Z,-0.05
2022-12-17T10:47:46.147Z,-0.03
2022-12-17T10:49:11.252Z,0.03
2022-12-17T10:50:35.719Z,-0.01
2022-12-17T10:51:57.255Z,0.05
2022-12-17T10:53:17.493Z,0.09
2022-12-17T10:54:45.333Z,0.15
2022-12-17T10:56:09.286Z,0.19
2022-12-17T10:57:44.862Z,0.15
2022-12-17T10:59:05.969Z,0.19
2022-12-17T11:00:49.656Z,0.23
2022-12-17T11:02:11.767Z,0.24
2022-12-17T11:03:43.901Z,0.25
2022-12-17T11:05:11.002Z,0.27
2022-12-17T11:06:31.871Z,0.31
2022-12-17T11:07:55.821Z,0.29
2022-12-17T11:09:16.058Z,0.24
2022-12-17T11:10:37.279Z,0.22
2022-12-17T11:11:58.025Z,0.24
2022-12-17T11:13:21.039Z,0.25
2022-12-17T11:14:41.140Z,0.22
2022-12-17T11:16:02.017Z,0.25
2022-12-17T11:17:22.098Z,0.27
2022-12-17T11:18:44.469Z,0.25
2022-12-17T11:20:06.168Z,0.23
2022-12-17T11:21:28.146Z,0.24
2022-12-17T11:22:53.836Z,0.25
2022-12-17T11:24:19.156Z,0.27
2022-12-17T11:25:51.277Z,0.26
2022-12-17T11:27:11.874Z,0.24
2022-12-17T11:28:40.292Z,0.27
2022-12-17T11:30:00.401Z,0.29
2022-12-17T11:31:23.305Z,0.26
2022-12-17T11:33:12.341Z,0.27
2022-12-17T11:34:35.668Z,0.26
2022-12-17T11:36:00.857Z,0.27
2022-12-17T11:37:32.633Z,0.31
2022-12-17T11:38:52.934Z,0.31
2022-12-17T11:40:16.185Z,0.34
2022-12-17T11:42:10.858Z,0.38
2022-12-17T11:43:31.681Z,0.40
2022-12-17T11:45:10.756Z,0.44
2022-12-17T11:46:33.940Z,0.45
2022-12-17T11:48:12.667Z,0.48
2022-12-17T11:49:41.697Z,0.49
2022-12-17T11:51:01.741Z,0.50
2022-12-17T11:52:29.878Z,0.55
2022-12-17T11:53:53.022Z,0.59
2022-12-17T11:55:22.540Z,0.56
2022-12-17T11:56:45.341Z,0.50
2022-12-17T11:58:16.853Z,0.48
2022-12-17T11:59:52.723Z,0.49
2022-12-17T12:01:19.393Z,0.53
2022-12-17T12:02:42.725Z,0.54
2022-12-17T12:04:12.121Z,0.58
2022-12-17T12:06:07.784Z,0.61
2022-12-17T12:07:39.799Z,0.63
2022-12-17T12:09:26.068Z,0.58
2022-12-17T12:10:49.118Z,0.58
2022-12-17T12:12:27.629Z,0.60
2022-12-17T12:13:54.780Z,0.62
2022-12-17T12:15:15.186Z,0.61
2022-12-17T12:16:44.144Z,0.61
2022-12-17T12:18:08.961Z,0.56
2022-12-17T12:19:32.129Z,0.58
2022-12-17T12:21:10.825Z,0.57
2022-12-17T12:22:49.265Z,0.55
2022-12-17T12:24:12.390Z,0.54
2022-12-17T12:25:38.717Z,0.57
2022-12-17T12:27:08.522Z,0.64
2022-12-17T12:28:31.878Z,0.68
2022-12-17T12:29:51.687Z,0.72
2022-12-17T12:31:41.079Z,0.75
2022-12-17T12:33:08.417Z,0.76
2022-12-17T12:34:30.909Z,0.80
2022-12-17T12:35:51.269Z,0.82
2022-12-17T12:37:11.197Z,0.87
2022-12-17T12:38:41.656Z,0.87
2022-12-17T12:40:04.991Z,0.87
2022-12-17T12:42:03.430Z,0.79
2022-12-17T12:43:29.673Z,0.81
2022-12-17T12:44:56.230Z,0.85
2022-12-17T12:46:16.612Z,0.85
2022-12-17T12:47:40.675Z,0.87
2022-12-17T12:49:04.445Z,0.89
2022-12-17T12:50:29.745Z,0.91
2022-12-17T12:51:52.497Z,0.92
2022-12-17T12:53:12.450Z,0.85
2022-12-17T12:54:43.270Z,0.82
2022-12-17T12:56:03.507Z,0.85
2022-12-17T12:57:26.335Z,0.86
2022-12-17T12:58:49.389Z,0.83
2022-12-17T13:00:09.664Z,0.80
2022-12-17T13:01:30.158Z,0.82
2022-12-17T13:02:50.316Z,0.81
2022-12-17T13:04:11.970Z,0.77
2022-12-17T13:05:34.690Z,0.77
2022-12-17T13:06:43.328Z,0.77
2022-12-17T13:07:44.850Z,0.79
2022-12-17T13:08:46.304Z,0.77
2022-12-17T13:09:48.837Z,0.76
2022-12-17T13:10:50.477Z,0.75
2022-12-17T13:12:04.270Z,0.73
2022-12-17T13:13:17.757Z,0.74
2022-12-17T13:14:20.744Z,0.75
2022-12-17T13:15:30.253Z,0.79
2022-12-17T13:16:54.054Z,0.83
2022-12-17T13:18:00.386Z,0.86
2022-12-17T13:19:03.186Z,0.88
2022-12-17T13:20:21.206Z,0.91
2022-12-17T13:21:26.002Z,0.93
2022-12-17T13:22:28.732Z,0.96
2022-12-17T13:23:31.403Z,0.98
2022-12-17T13:24:32.889Z,1.00
2022-12-17T13:25:34.422Z,1.01
2022-12-17T13:26:41.570Z,0.98
2022-12-17T13:27:43.077Z,0.99
2022-12-17T13:28:48.427Z,0.99
2022-12-17T13:29:49.944Z,1.00
2022-12-17T13:30:59.669Z,1.01
2022-12-17T13:32:01.244Z,1.03
2022-12-17T13:33:09.046Z,1.03
2022-12-17T13:34:27.004Z,1.02
2022-12-17T13:35:38.388Z,0.95
2022-12-17T13:36:55.616Z,0.92
2022-12-17T13:37:59.852Z,0.90
2022-12-17T13:39:06.670Z,0.92
2022-12-17T13:40:16.979Z,0.91
2022-12-17T13:41:19.119Z,0.92
2022-12-17T13:42:34.602Z,0.91
2022-12-17T13:43:56.857Z,0.93
2022-12-17T13:44:58.403Z,0.94
2022-12-17T13:45:59.950Z,0.90
2022-12-17T13:47:01.466Z,0.87
2022-12-17T13:48:03.025Z,0.80
2022-12-17T13:49:05.431Z,0.81
2022-12-17T13:50:38.349Z,0.82
2022-12-17T13:51:39.866Z,0.82
2022-12-17T13:52:41.348Z,0.69
2022-12-17T13:53:50.889Z,0.69
2022-12-17T13:54:52.482Z,0.71
2022-12-17T13:55:54.796Z,0.73
2022-12-17T13:57:05.956Z,0.71
2022-12-17T13:58:19.170Z,0.73
2022-12-17T13:59:21.837Z,0.73
2022-12-17T14:00:23.901Z,0.71
2022-12-17T14:01:28.510Z,0.75
2022-12-17T14:02:32.071Z,0.76
2022-12-17T14:04:03.835Z,0.78
2022-12-17T14:04:55.829Z,0.79
2022-12-17T14:05:59.737Z,0.72
2022-12-17T14:07:03.573Z,0.68
2022-12-17T14:08:06.649Z,0.65
2022-12-17T14:09:08.195Z,0.65
2022-12-17T14:10:14.400Z,0.63
2022-12-17T14:11:34.298Z,0.67
2022-12-17T14:12:35.827Z,0.70
2022-12-17T14:13:37.300Z,0.68
2022-12-17T14:14:38.959Z,0.70
2022-12-17T14:15:44.643Z,0.73
2022-12-17T14:16:50.577Z,0.72
2022-12-17T14:17:52.845Z,0.73
2022-12-17T14:18:57.263Z,0.75
2022-12-17T14:19:59.229Z,0.77
2022-12-17T14:21:00.753Z,0.74
2022-12-17T14:22:02.449Z,0.72
2022-12-17T14:23:07.472Z,0.63
2022-12-17T14:24:10.693Z,0.61
2022-12-17T14:25:16.233Z,0.58
2022-12-17T14:26:17.766Z,0.61
2022-12-17T14:27:23.135Z,0.62
2022-12-17T14:28:34.505Z,0.62
2022-12-17T14:29:44.911Z,0.57
2022-12-17T14:31:24.429Z,0.59
2022-12-17T14:32:21.543Z,0.62
2022-12-17T14:33:32.900Z,0.63
2022-12-17T14:34:41.224Z,0.63
2022-12-17T14:35:42.696Z,0.61
2022-12-17T14:36:44.163Z,0.63
2022-12-17T14:37:46.483Z,0.62
2022-12-17T14:38:57.771Z,0.61
2022-12-17T14:40:00.951Z,0.59
2022-12-17T14:41:23.057Z,0.54
2022-12-17T14:42:30.769Z,0.56
2022-12-17T14:43:32.255Z,0.54
2022-12-17T14:44:33.757Z,0.55
2022-12-17T14:45:55.233Z,0.56
2022-12-17T14:47:12.678Z,0.58
2022-12-17T14:48:14.152Z,0.56
2022-12-17T14:49:16.781Z,0.54
2022-12-17T14:50:18.235Z,0.57
2022-12-17T14:51:23.257Z,0.58
2022-12-17T14:52:33.123Z,0.62
2022-12-17T14:53:34.738Z,0.61
2022-12-17T14:54:36.194Z,0.60
2022-12-17T14:55:57.272Z,0.54
2022-12-17T14:56:59.035Z,0.55
2022-12-17T14:58:26.438Z,0.53
2022-12-17T14:59:30.445Z,0.51
2022-12-17T15:00:32.299Z,0.48
2022-12-17T15:01:34.769Z,0.50
2022-12-17T15:02:38.440Z,0.51
2022-12-17T15:03:40.781Z,0.52
2022-12-17T15:04:42.317Z,0.52
2022-12-17T15:05:43.773Z,0.54
2022-12-17T15:06:45.290Z,0.54
2022-12-17T15:07:46.756Z,0.55
2022-12-17T15:08:49.291Z,0.54
2022-12-17T15:09:52.701Z,0.54
2022-12-17T15:10:54.199Z,0.46
2022-12-17T15:11:55.663Z,0.43
2022-12-17T15:12:57.251Z,0.40
2022-12-17T15:13:58.692Z,0.38
2022-12-17T15:15:00.217Z,0.37
2022-12-17T15:16:01.704Z,0.39
2022-12-17T15:17:03.349Z,0.41
2022-12-17T15:18:05.001Z,0.41
2022-12-17T15:19:06.493Z,0.44
2022-12-17T15:20:10.122Z,0.40
2022-12-17T15:21:11.637Z,0.36
2022-12-17T15:22:14.438Z,0.37
2022-12-17T15:23:16.828Z,0.39
2022-12-17T15:24:21.210Z,0.33
2022-12-17T15:25:22.671Z,0.35
2022-12-17T15:26:24.142Z,0.38
2022-12-17T15:27:25.627Z,0.39
2022-12-17T15:28:27.120Z,0.41
2022-12-17T15:29:28.921Z,0.41
2022-12-17T15:30:30.462Z,0.43
2022-12-17T15:31:35.472Z,0.45
2022-12-17T15:32:37.374Z,0.47
2022-12-17T15:33:39.033Z,0.48
2022-12-17T15:34:40.514Z,0.49
2022-12-17T15:35:42.072Z,0.43
2022-12-17T15:36:44.426Z,0.44
2022-12-17T15:37:45.871Z,0.40
2022-12-17T15:38:47.542Z,0.40
2022-12-17T15:39:49.949Z,0.34
2022-12-17T15:40:54.445Z,0.34
2022-12-17T15:42:14.616Z,0.33
2022-12-17T15:43:16.130Z,0.34
2022-12-17T15:44:17.684Z,0.23
2022-12-17T15:45:19.457Z,0.36
2022-12-17T15:46:21.097Z,0.33
2022-12-17T15:47:22.621Z,0.26
2022-12-17T15:48:24.112Z,0.27
2022-12-17T15:49:25.545Z,0.26
2022-12-17T15:50:27.313Z,0.27
2022-12-17T15:51:28.784Z,0.28
2022-12-17T15:52:30.408Z,0.25
2022-12-17T15:53:31.864Z,0.25
2022-12-17T15:54:33.377Z,0.26
2022-12-17T15:55:35.171Z,0.23
2022-12-17T15:56:37.215Z,0.25
2022-12-17T15:57:38.674Z,0.24
2022-12-17T15:58:40.352Z,0.23
2022-12-17T15:59:41.834Z,0.22
2022-12-17T16:00:43.318Z,0.22
2022-12-17T16:01:44.850Z,0.21
2022-12-17T16:02:47.447Z,0.22
2022-12-17T16:03:52.243Z,0.24
2022-12-17T16:04:53.801Z,0.23
2022-12-17T16:05:55.314Z,0.24
2022-12-17T16:06:57.204Z,0.25
2022-12-17T16:08:02.169Z,0.24
2022-12-17T16:09:03.810Z,0.21
2022-12-17T16:10:05.885Z,0.23
2022-12-17T16:11:08.122Z,0.24
2022-12-17T16:12:09.621Z,0.26
2022-12-17T16:13:11.168Z,0.27
2022-12-17T16:14:12.622Z,0.28
2022-12-17T16:15:14.572Z,0.31
2022-12-17T16:16:16.241Z,0.29
2022-12-17T16:17:17.734Z,0.29
2022-12-17T16:18:19.237Z,0.29
2022-12-17T16:19:23.514Z,0.27
2022-12-17T16:20:25.000Z,0.25
2022-12-17T16:21:26.513Z,0.26
2022-12-17T16:22:28.386Z,0.25
2022-12-17T16:23:29.929Z,0.24
2022-12-17T16:24:31.419Z,0.21
2022-12-17T16:25:32.901Z,0.22
2022-12-17T16:26:34.345Z,0.24
2022-12-17T16:27:35.861Z,0.24
2022-12-17T16:28:37.704Z,0.18
2022-12-17T16:29:39.522Z,0.18
2022-12-17T16:30:41.062Z,0.16
2022-12-17T16:31:42.640Z,0.16
2022-12-17T16:32:44.615Z,0.17
2022-12-17T16:33:48.100Z,0.17
2022-12-17T16:34:49.611Z,0.08
2022-12-17T16:35:54.260Z,0.17
2022-12-17T16:36:55.740Z,0.15
2022-12-17T16:37:57.200Z,0.14
2022-12-17T16:38:58.901Z,0.15
2022-12-17T16:40:00.805Z,0.16
2022-12-17T16:41:02.660Z,0.14
2022-12-17T16:42:04.186Z,0.14
2022-12-17T16:43:05.629Z,0.13
2022-12-17T16:44:07.109Z,0.13
2022-12-17T16:45:08.841Z,0.11
2022-12-17T16:46:22.991Z,0.13
2022-12-17T16:47:24.885Z,0.15
2022-12-17T16:48:26.366Z,0.14
2022-12-17T16:49:27.812Z,0.16
2022-12-17T16:50:30.551Z,0.15